Buffalo, WY

5:04 PM MDT on September 18, 2014 (GMT -0600)
Esponda Ranch | Change Station
CLOSE
Current Station
Personal Weather Station
Location: Buffalo, WY
Elevation: 4665 ft
Nearby Weather Stations

Elev 4665 ft 44.32 °N, 106.67 °W | Updated 8 minutes ago

Clear
Clear
77.1 °F
Feels Like 78 °F
N
7.0
Wind Variable Wind from NNW
Gusts 13.0 mph

Today
High -- | Low -- °F
--% Chance of Precip.
Yesterday
High -- | Low -- °F
Precip. -- in
6:49 AM 7:11 PM
Waning Crescent, 24% visible
Pressure 29.70 in
Visibility 10.0 miles
Clouds Clear
Heat Index 78 °F
Dew Point 54 °F
Humidity 45%
Rainfall 0.00 in
Snow Depth 0 in , 0 in , 2 in
UV 2 out of 12
Pollen 6.00 out of 12
Air Quality Not available.
Flu Activity Not available.
METAR KBYG 182253Z AUTO 34009KT 10SM CLR 24/09 A2988 RMK AO2 SLP058 T02440089

More Conditions Fewer Conditions

Pressure 29.70 in
Visibility 10.0 miles
Clouds Clear
Heat Index 78 °F
Dew Point 54 °F
Humidity 45%
Rainfall 0.00 in
Snow Depth 0 in , 0 in , 2 in
UV 2 out of 12
Pollen 6.00 out of 12
Air Quality Not available.
Flu Activity Not available.
METAR KBYG 182253Z AUTO 34009KT 10SM CLR 24/09 A2988 RMK AO2 SLP058 T02440089

More Conditions Fewer Conditions

10-Day Weather Forecast

Almanac

Astronomy

Sep. 18, 2014 Rise Set
Actual Time 6:49 AM MDT 7:11 PM MDT
Civil Twilight 6:20 AM MDT 7:40 PM MDT
Nautical Twilight 5:46 AM MDT 8:14 PM MDT
Astronomical Twilight 5:10 AM MDT 8:50 PM MDT
Moon 1:35 AM MDT 4:12 PM MDT
Length of Visible Light 13h 20m
Length of Day
12h 22m
Tomorrow will be 3m 3s shorter.
Waning Crescent, 24% of the Moon is Illuminated
Today
Waning Crescent
Sep 24
New
Oct 1
First Quarter
Oct 8
Full
Oct 15
Last Quarter

Today's Extremes

State Highs State Lows

Community

WunderPhotos

Upload Photos

1,754,475 photos uploaded!

WunderBlogs® & News

Nearby

Snow Depth

Station Depth Elevation
Two Ocean Plateau 0 in 9240 ft
Salt River Summit 0 in 7600 ft
Willow Creek 2 in 8450 ft
Phillips Bench 0 in 8200 ft
Blind Bull Summit 0 in 8900 ft

Earthquake Activity

City Distance Mag. Time & Date
No recent earthquake activity has been reported nearby.
Minimum magnitude displayed is 2.5.

Coastal Water Temperatures

Place Temperature
No Stations Reporting

Nearby Weather Stations